createdAt,value
2023-05-14T00:00:56.851Z,7.35
2023-05-14T00:03:24.540Z,6.80
2023-05-14T00:05:52.633Z,6.90
2023-05-14T00:08:21.700Z,7.38
2023-05-14T00:10:49.733Z,7.18
2023-05-14T00:13:17.401Z,6.35
2023-05-14T00:15:45.226Z,8.00
2023-05-14T00:18:13.458Z,6.80
2023-05-14T00:20:42.038Z,7.05
2023-05-14T00:23:09.790Z,7.80
2023-05-14T00:25:38.890Z,7.47
2023-05-14T00:28:06.868Z,7.40
2023-05-14T00:30:34.956Z,7.50
2023-05-14T00:33:02.718Z,7.78
2023-05-14T00:35:30.760Z,7.78
2023-05-14T00:37:58.469Z,7.30
2023-05-14T00:40:27.845Z,7.90
2023-05-14T00:42:57.512Z,8.07
2023-05-14T00:45:25.759Z,7.50
2023-05-14T00:47:53.789Z,7.90
2023-05-14T00:50:22.395Z,8.13
2023-05-14T00:52:50.795Z,7.95
2023-05-14T00:55:18.666Z,7.78
2023-05-14T00:57:46.438Z,7.80
2023-05-14T01:00:16.738Z,8.05
2023-05-14T01:02:44.524Z,9.13
2023-05-14T01:05:12.394Z,9.05
2023-05-14T01:07:46.380Z,9.03
2023-05-14T01:10:16.929Z,9.07
2023-05-14T01:12:51.709Z,9.65
2023-05-14T01:15:23.167Z,9.05
2023-05-14T01:17:53.567Z,9.23
2023-05-14T01:20:21.643Z,8.98
2023-05-14T01:22:51.131Z,7.95
2023-05-14T01:25:18.949Z,9.25
2023-05-14T01:27:51.454Z,9.43
2023-05-14T01:30:21.512Z,8.50
2023-05-14T01:32:52.709Z,8.38
2023-05-14T01:35:21.654Z,7.85
2023-05-14T01:37:51.440Z,8.20
2023-05-14T01:40:19.486Z,8.32
2023-05-14T01:42:47.501Z,7.63
2023-05-14T01:45:15.294Z,7.35
2023-05-14T01:47:43.102Z,8.25
2023-05-14T01:50:12.058Z,8.23
2023-05-14T01:52:39.807Z,7.80
2023-05-14T01:55:10.173Z,8.57
2023-05-14T01:57:37.858Z,9.37
2023-05-14T02:00:06.761Z,8.85
2023-05-14T02:02:34.516Z,9.32
2023-05-14T02:05:02.681Z,9.05
2023-05-14T02:07:31.332Z,8.40
2023-05-14T02:09:59.488Z,8.40
2023-05-14T02:12:28.572Z,8.48
2023-05-14T02:14:56.311Z,7.67
2023-05-14T02:17:24.992Z,7.78
2023-05-14T02:19:52.749Z,7.53
2023-05-14T02:22:20.478Z,7.07
2023-05-14T02:24:49.743Z,7.18
2023-05-14T02:27:17.648Z,6.68
2023-05-14T02:29:46.809Z,7.35
2023-05-14T02:32:14.534Z,7.60
2023-05-14T02:34:42.246Z,7.53
2023-05-14T02:37:09.929Z,8.02
2023-05-14T02:39:37.630Z,7.68
2023-05-14T02:42:06.911Z,7.63
2023-05-14T02:44:34.570Z,8.13
2023-05-14T02:47:04.064Z,8.77
2023-05-14T02:49:31.862Z,7.90
2023-05-14T02:52:00.908Z,8.10
2023-05-14T02:54:28.595Z,7.75
2023-05-14T02:56:56.284Z,7.43
2023-05-14T02:59:25.668Z,7.95
2023-05-14T03:01:54.096Z,7.35
2023-05-14T03:04:23.481Z,7.37
2023-05-14T03:06:51.295Z,7.55
2023-05-14T03:09:19.029Z,7.25
2023-05-14T03:11:47.100Z,7.17
2023-05-14T03:14:14.926Z,7.38
2023-05-14T03:16:42.672Z,8.13
2023-05-14T03:19:10.884Z,9.25
2023-05-14T03:21:40.019Z,9.60
2023-05-14T03:24:08.015Z,9.85
2023-05-14T03:26:35.741Z,9.38
2023-05-14T03:29:03.968Z,9.38
2023-05-14T03:31:31.656Z,7.97
2023-05-14T03:33:59.549Z,7.73
2023-05-14T03:36:27.241Z,7.60
2023-05-14T03:38:56.297Z,7.65
2023-05-14T03:41:24.268Z,7.97
2023-05-14T03:43:52.370Z,7.30
2023-05-14T03:46:20.044Z,7.78
2023-05-14T03:48:47.769Z,7.63
2023-05-14T03:51:15.692Z,7.70
2023-05-14T03:53:43.428Z,8.25
2023-05-14T03:56:12.520Z,9.03
2023-05-14T03:58:40.728Z,8.00
2023-05-14T04:01:08.391Z,8.40
2023-05-14T04:03:36.225Z,9.75
2023-05-14T04:06:04.091Z,10.60
2023-05-14T04:08:32.117Z,9.07
2023-05-14T04:10:59.798Z,9.82
2023-05-14T04:13:28.901Z,7.60
2023-05-14T04:15:56.932Z,10.37
2023-05-14T04:18:24.719Z,9.45
2023-05-14T04:20:52.420Z,9.65
2023-05-14T04:23:20.100Z,8.85
2023-05-14T04:25:47.764Z,9.38
2023-05-14T04:28:15.650Z,8.90
2023-05-14T04:30:45.683Z,10.15
2023-05-14T04:33:13.471Z,9.15
2023-05-14T04:35:41.548Z,9.70
2023-05-14T04:38:10.050Z,9.43
2023-05-14T04:40:37.891Z,8.82
2023-05-14T04:43:05.569Z,9.40
2023-05-14T04:45:34.341Z,9.55
2023-05-14T04:48:03.849Z,9.52
2023-05-14T04:50:38.604Z,10.35
2023-05-14T04:53:06.302Z,9.82
2023-05-14T04:55:34.287Z,10.68
2023-05-14T04:58:02.309Z,11.57
2023-05-14T05:00:30.530Z,9.70
2023-05-14T05:02:58.316Z,10.47
2023-05-14T05:05:27.484Z,12.73
2023-05-14T05:07:55.682Z,11.30
2023-05-14T05:10:23.829Z,11.25
2023-05-14T05:12:52.037Z,11.85
2023-05-14T05:15:19.716Z,10.63
2023-05-14T05:17:47.417Z,11.53
2023-05-14T05:20:15.461Z,11.68
2023-05-14T05:22:44.776Z,10.02
2023-05-14T05:25:13.015Z,10.60
2023-05-14T05:27:40.712Z,9.23
2023-05-14T05:30:09.979Z,10.07
2023-05-14T05:32:37.869Z,10.07
2023-05-14T05:35:06.569Z,10.52
2023-05-14T05:37:34.271Z,10.73
2023-05-14T05:40:04.281Z,12.43
2023-05-14T05:42:31.982Z,11.35
2023-05-14T05:44:59.645Z,11.77
2023-05-14T05:47:27.619Z,11.50
2023-05-14T05:49:55.650Z,11.95
2023-05-14T05:52:23.325Z,10.75
2023-05-14T05:57:34.166Z,10.70
2023-05-14T06:00:07.979Z,11.02
2023-05-14T06:02:36.044Z,11.18
2023-05-14T06:05:03.904Z,10.73
2023-05-14T06:07:32.047Z,9.90
2023-05-14T06:09:59.726Z,9.68
2023-05-14T06:12:27.459Z,9.20
2023-05-14T06:14:57.856Z,8.70
2023-05-14T06:17:25.711Z,7.70
2023-05-14T06:19:54.061Z,8.18
2023-05-14T06:22:21.988Z,7.88
2023-05-14T06:24:49.723Z,7.30
2023-05-14T06:27:17.422Z,6.63
2023-05-14T06:29:45.317Z,7.00
2023-05-14T06:32:15.780Z,6.70
2023-05-14T06:34:43.847Z,7.38
2023-05-14T06:37:12.330Z,6.10
2023-05-14T06:39:40.562Z,6.40
2023-05-14T06:42:08.560Z,6.32
2023-05-14T06:44:36.266Z,6.67
2023-05-14T06:47:03.926Z,5.95
2023-05-14T06:49:33.339Z,6.65
2023-05-14T06:52:01.022Z,6.40
2023-05-14T06:54:28.723Z,5.82
2023-05-14T06:56:56.379Z,5.77
2023-05-14T06:59:24.045Z,5.45
2023-05-14T07:01:51.805Z,5.00
2023-05-14T07:04:19.975Z,5.25
2023-05-14T07:06:49.359Z,5.07
2023-05-14T07:09:17.469Z,5.43
2023-05-14T07:11:45.173Z,5.10
2023-05-14T07:14:12.990Z,4.38
2023-05-14T07:16:41.879Z,4.38
2023-05-14T07:19:09.952Z,4.60
2023-05-14T07:21:37.704Z,4.43
2023-05-14T07:24:07.386Z,4.17
2023-05-14T07:26:35.282Z,3.63
2023-05-14T07:29:02.950Z,4.00
2023-05-14T07:31:30.864Z,3.67
2023-05-14T07:33:58.904Z,3.88
2023-05-14T07:36:26.674Z,3.50
2023-05-14T07:38:54.326Z,3.40
2023-05-14T07:41:23.365Z,3.25
2023-05-14T07:43:51.024Z,3.15
2023-05-14T07:46:18.671Z,3.70
2023-05-14T07:48:46.608Z,3.45
2023-05-14T07:51:14.252Z,3.08
2023-05-14T07:53:42.206Z,3.60
2023-05-14T07:56:09.868Z,3.60
2023-05-14T07:58:38.942Z,3.50
2023-05-14T08:01:09.160Z,3.47
2023-05-14T08:03:37.048Z,3.08
2023-05-14T08:06:05.139Z,2.92
2023-05-14T08:08:32.956Z,2.90
2023-05-14T08:11:00.761Z,3.00
2023-05-14T08:13:28.546Z,2.90
2023-05-14T08:15:57.768Z,2.40
2023-05-14T08:18:25.619Z,2.53
2023-05-14T08:20:53.279Z,2.40
2023-05-14T08:23:20.964Z,1.77
2023-05-14T08:25:48.596Z,2.42
2023-05-14T08:28:16.317Z,2.03
2023-05-14T08:30:43.982Z,2.38
2023-05-14T08:33:13.109Z,2.30
2023-05-14T08:35:40.805Z,2.15
2023-05-14T08:38:08.693Z,2.00
2023-05-14T08:40:36.483Z,2.17
2023-05-14T08:43:04.179Z,2.27
2023-05-14T08:45:34.348Z,2.13
2023-05-14T08:48:02.774Z,1.98
2023-05-14T08:53:17.123Z,1.80
2023-05-14T08:55:45.523Z,1.80
2023-05-14T08:58:13.343Z,1.70
2023-05-14T09:00:41.143Z,1.77
2023-05-14T09:03:08.933Z,2.00
2023-05-14T09:05:36.687Z,1.73
2023-05-14T09:08:04.460Z,1.60
2023-05-14T09:10:33.647Z,1.70
2023-05-14T09:13:01.384Z,1.70
2023-05-14T09:15:29.360Z,1.88
2023-05-14T09:17:57.698Z,1.83
2023-05-14T09:23:01.768Z,1.60
2023-05-14T09:25:33.539Z,1.33
2023-05-14T09:28:01.227Z,1.40
2023-05-14T09:30:28.954Z,1.50
2023-05-14T09:32:56.649Z,1.58
2023-05-14T09:35:25.470Z,1.50
2023-05-14T09:37:54.327Z,1.63
2023-05-14T09:40:24.409Z,1.67
2023-05-14T09:42:53.964Z,1.40
2023-05-14T09:45:21.658Z,1.35
2023-05-14T09:47:49.480Z,1.33
2023-05-14T09:50:17.472Z,1.65
2023-05-14T09:52:45.134Z,1.42
2023-05-14T09:55:13.049Z,1.20
2023-05-14T09:57:41.014Z,1.65
2023-05-14T10:00:12.732Z,1.40
2023-05-14T10:02:41.845Z,1.50
2023-05-14T10:05:10.388Z,2.28
2023-05-14T10:07:41.708Z,1.55
2023-05-14T10:10:12.862Z,1.50
2023-05-14T10:12:41.807Z,1.80
2023-05-14T10:15:16.846Z,1.65
2023-05-14T10:17:46.142Z,1.98
2023-05-14T10:20:16.705Z,1.70
2023-05-14T10:22:44.450Z,1.60
2023-05-14T10:25:12.400Z,1.50
2023-05-14T10:27:40.452Z,1.70
2023-05-14T10:30:13.742Z,1.75
2023-05-14T10:32:42.055Z,1.52
2023-05-14T10:35:20.693Z,1.70
2023-05-14T10:37:48.778Z,2.08
2023-05-14T10:40:17.909Z,2.28
2023-05-14T10:42:47.546Z,1.88
2023-05-14T10:45:17.150Z,1.60
2023-05-14T10:47:47.456Z,1.88
2023-05-14T10:50:17.411Z,1.83
2023-05-14T10:52:46.238Z,1.83
2023-05-14T10:55:15.787Z,1.77
2023-05-14T10:57:45.802Z,1.50
2023-05-14T11:00:14.882Z,1.95
2023-05-14T11:02:45.732Z,1.70
2023-05-14T11:05:16.039Z,1.80
2023-05-14T11:07:45.045Z,1.63
2023-05-14T11:10:14.249Z,1.52
2023-05-14T11:12:43.053Z,1.50
2023-05-14T11:15:12.046Z,1.40
2023-05-14T11:17:41.271Z,1.38
2023-05-14T11:20:12.278Z,1.63
2023-05-14T11:22:41.403Z,1.75
2023-05-14T11:25:10.214Z,1.33
2023-05-14T11:27:39.441Z,1.70
2023-05-14T11:30:14.232Z,1.37
2023-05-14T11:32:42.187Z,1.40
2023-05-14T11:35:11.410Z,1.42
2023-05-14T11:37:39.058Z,1.60
2023-05-14T11:40:10.883Z,1.67
2023-05-14T11:42:38.663Z,1.60
2023-05-14T11:45:07.546Z,1.42
2023-05-14T11:47:35.205Z,1.40
2023-05-14T11:50:02.890Z,1.40
2023-05-14T11:52:31.917Z,1.48
2023-05-14T11:54:59.557Z,1.35
2023-05-14T11:57:27.192Z,1.40
2023-05-14T11:59:57.994Z,1.50
2023-05-14T12:02:48.528Z,1.30
2023-05-14T12:05:16.323Z,1.37
2023-05-14T12:07:47.265Z,1.60
2023-05-14T12:10:15.252Z,1.50
2023-05-14T12:12:46.655Z,1.33
2023-05-14T12:15:16.396Z,1.60
2023-05-14T12:17:44.453Z,1.30
2023-05-14T12:20:13.211Z,1.02
2023-05-14T12:22:43.244Z,1.33
2023-05-14T12:25:14.547Z,1.20
2023-05-14T12:27:45.019Z,1.33
2023-05-14T12:30:21.212Z,1.20
2023-05-14T12:32:55.294Z,1.00
2023-05-14T12:35:23.755Z,1.23
2023-05-14T12:37:51.667Z,1.10
2023-05-14T12:40:21.043Z,1.03
2023-05-14T12:42:48.707Z,1.13
2023-05-14T12:45:16.349Z,1.20
2023-05-14T12:47:44.046Z,1.42
2023-05-14T12:50:12.404Z,1.23
2023-05-14T12:52:40.312Z,0.98
2023-05-14T12:55:09.068Z,1.33
2023-05-14T12:57:39.092Z,1.00
2023-05-14T13:00:08.611Z,1.23
2023-05-14T13:02:42.070Z,1.05
2023-05-14T13:05:11.357Z,1.10
2023-05-14T13:07:39.314Z,1.00
2023-05-14T13:10:08.211Z,0.90
2023-05-14T13:12:35.998Z,1.05
2023-05-14T13:15:05.856Z,1.00
2023-05-14T13:17:33.756Z,1.05
2023-05-14T13:20:01.436Z,0.75
2023-05-14T13:22:29.107Z,1.00
2023-05-14T13:24:56.790Z,0.90
2023-05-14T13:27:24.488Z,1.10
2023-05-14T13:29:52.171Z,0.87
2023-05-14T13:32:21.409Z,1.00
2023-05-14T13:34:49.121Z,1.20
2023-05-14T13:37:16.972Z,1.02
2023-05-14T13:39:44.707Z,1.10
2023-05-14T13:42:12.383Z,1.00
2023-05-14T13:44:40.234Z,1.50
2023-05-14T13:47:08.216Z,1.27
2023-05-14T13:49:37.361Z,1.40
2023-05-14T13:52:06.219Z,1.10
2023-05-14T13:54:33.939Z,1.20
2023-05-14T13:57:01.626Z,1.50
2023-05-14T13:59:29.323Z,1.40
2023-05-14T14:01:57.218Z,1.30
2023-05-14T14:04:28.912Z,1.50
2023-05-14T14:06:58.121Z,1.70
2023-05-14T14:09:26.265Z,1.33
2023-05-14T14:11:54.025Z,1.27
2023-05-14T14:14:21.951Z,1.27
2023-05-14T14:16:49.599Z,1.20
2023-05-14T14:19:18.505Z,1.20
2023-05-14T14:21:46.378Z,1.70
2023-05-14T14:24:15.473Z,0.98
2023-05-14T14:26:43.680Z,1.00
2023-05-14T14:29:11.384Z,0.93
2023-05-14T14:31:39.097Z,1.30
2023-05-14T14:34:06.789Z,1.00
2023-05-14T14:36:34.659Z,0.88
2023-05-14T14:39:02.544Z,1.03
2023-05-14T14:41:31.659Z,1.00
2023-05-14T14:43:59.312Z,1.10
2023-05-14T14:46:27.608Z,1.00
2023-05-14T14:48:55.510Z,1.00
2023-05-14T14:51:23.328Z,0.95
2023-05-14T14:53:51.178Z,1.00
2023-05-14T14:56:18.870Z,0.90
2023-05-14T14:58:47.981Z,1.05
2023-05-14T15:01:15.907Z,1.20
2023-05-14T15:03:45.640Z,1.08
2023-05-14T15:06:13.677Z,1.05
2023-05-14T15:08:41.802Z,1.10
2023-05-14T15:11:09.885Z,1.00
2023-05-14T15:13:37.557Z,1.00
2023-05-14T15:16:07.163Z,1.13
2023-05-14T15:18:34.905Z,1.13
2023-05-14T15:21:02.632Z,1.00
2023-05-14T15:23:30.379Z,1.17
2023-05-14T15:25:58.150Z,1.80
2023-05-14T15:28:25.858Z,1.10
2023-05-14T15:30:54.447Z,0.80
2023-05-14T15:33:23.723Z,1.10
2023-05-14T15:35:51.512Z,1.00
2023-05-14T15:38:19.530Z,0.88
2023-05-14T15:40:47.234Z,1.10
2023-05-14T15:43:14.961Z,0.90
2023-05-14T15:45:43.890Z,1.10
2023-05-14T15:48:11.799Z,1.10
2023-05-14T15:50:41.897Z,1.10
2023-05-14T15:53:09.865Z,1.20
2023-05-14T15:55:37.547Z,1.10
2023-05-14T15:58:05.445Z,1.10
2023-05-14T16:00:33.289Z,1.23
2023-05-14T16:03:01.040Z,1.30
2023-05-14T16:05:28.945Z,1.30
2023-05-14T16:07:58.107Z,1.02
2023-05-14T16:10:26.106Z,1.38
2023-05-14T16:12:54.015Z,1.27
2023-05-14T16:15:21.974Z,1.48
2023-05-14T16:17:49.831Z,1.50
2023-05-14T16:20:17.768Z,1.30
2023-05-14T16:22:45.877Z,1.80
2023-05-14T16:25:15.146Z,1.73
2023-05-14T16:27:43.129Z,1.40
2023-05-14T16:30:11.603Z,1.43
2023-05-14T16:32:40.452Z,1.20
2023-05-14T16:35:08.729Z,1.50
2023-05-14T16:37:36.567Z,1.70
2023-05-14T16:40:05.211Z,1.58
2023-05-14T16:42:34.265Z,1.40
2023-05-14T16:45:01.959Z,1.50
2023-05-14T16:47:29.746Z,1.90
2023-05-14T16:49:57.639Z,1.80
2023-05-14T16:52:41.432Z,1.83
2023-05-14T16:55:10.547Z,1.77
2023-05-14T16:57:39.683Z,1.50
2023-05-14T17:00:09.556Z,1.85
2023-05-14T17:02:37.342Z,2.13
2023-05-14T17:05:05.711Z,1.80
2023-05-14T17:07:33.428Z,2.00
2023-05-14T17:10:01.243Z,1.70
2023-05-14T17:12:29.142Z,1.70
2023-05-14T17:14:58.190Z,1.52
2023-05-14T17:17:25.925Z,1.80
2023-05-14T17:19:54.150Z,2.10
2023-05-14T17:22:21.833Z,1.92
2023-05-14T17:24:49.547Z,2.33
2023-05-14T17:27:17.196Z,1.90
2023-05-14T17:29:44.915Z,2.30
2023-05-14T17:32:14.120Z,2.00
2023-05-14T17:34:41.849Z,1.80
2023-05-14T17:37:09.580Z,1.80
2023-05-14T17:39:37.358Z,1.90
2023-05-14T17:42:06.121Z,1.80
2023-05-14T17:44:33.802Z,2.00
2023-05-14T17:47:03.077Z,1.65
2023-05-14T17:49:32.274Z,1.90
2023-05-14T17:52:00.398Z,1.88
2023-05-14T17:54:28.152Z,1.90
2023-05-14T17:56:56.175Z,1.98
2023-05-14T17:59:24.362Z,1.80
2023-05-14T18:01:52.371Z,1.77
2023-05-14T18:04:20.402Z,1.67
2023-05-14T18:06:49.563Z,2.30
2023-05-14T18:09:17.355Z,2.07
2023-05-14T18:14:45.422Z,2.10
2023-05-14T18:17:13.653Z,2.05
2023-05-14T18:19:41.738Z,1.85
2023-05-14T18:22:10.810Z,2.03
2023-05-14T18:24:38.779Z,1.90
2023-05-14T18:27:06.905Z,1.83
2023-05-14T18:29:34.609Z,1.80
2023-05-14T18:32:02.487Z,1.80
2023-05-14T18:34:30.251Z,1.80
2023-05-14T18:36:58.598Z,2.17
2023-05-14T18:39:28.177Z,1.75
2023-05-14T18:41:56.737Z,2.05
2023-05-14T18:44:24.669Z,1.77
2023-05-14T18:46:52.453Z,2.15
2023-05-14T18:49:20.466Z,2.10
2023-05-14T18:51:48.282Z,2.05
2023-05-14T18:54:15.936Z,2.10
2023-05-14T18:56:47.488Z,1.92
2023-05-14T18:59:15.601Z,2.13
2023-05-14T19:01:43.438Z,2.20
2023-05-14T19:04:11.459Z,2.20
2023-05-14T19:06:40.277Z,2.40
2023-05-14T19:09:08.065Z,2.03
2023-05-14T19:11:35.895Z,2.00
2023-05-14T19:14:04.975Z,2.40
2023-05-14T19:16:32.800Z,2.28
2023-05-14T19:19:01.037Z,2.37
2023-05-14T19:21:28.789Z,2.80
2023-05-14T19:23:56.532Z,2.60
2023-05-14T19:26:24.237Z,2.58
2023-05-14T19:28:52.659Z,3.00
2023-05-14T19:31:21.761Z,2.90
2023-05-14T19:33:49.769Z,2.85
2023-05-14T19:36:17.482Z,3.00
2023-05-14T19:38:45.147Z,2.67
2023-05-14T19:41:13.144Z,3.27
2023-05-14T19:43:40.910Z,3.03
2023-05-14T19:46:08.743Z,3.00
2023-05-14T19:48:38.805Z,3.20
2023-05-14T19:51:06.503Z,3.25
2023-05-14T19:53:34.325Z,3.20
2023-05-14T19:56:03.510Z,3.72
2023-05-14T19:58:31.207Z,2.90
2023-05-14T20:01:00.946Z,3.03
2023-05-14T20:03:29.769Z,3.45
2023-05-14T20:05:59.156Z,2.88
2023-05-14T20:08:28.998Z,3.03
2023-05-14T20:10:56.719Z,2.80
2023-05-14T20:13:25.236Z,3.13
2023-05-14T20:15:55.054Z,2.95
2023-05-14T20:18:22.951Z,2.60
2023-05-14T20:20:50.624Z,2.80
2023-05-14T20:23:20.707Z,2.55
2023-05-14T20:25:48.702Z,2.35
2023-05-14T20:28:16.423Z,2.72
2023-05-14T20:30:44.126Z,2.90
2023-05-14T20:33:13.395Z,3.20
2023-05-14T20:35:43.796Z,2.67
2023-05-14T20:38:12.755Z,2.97
2023-05-14T20:40:42.232Z,2.60
2023-05-14T20:43:10.054Z,2.65
2023-05-14T20:45:37.738Z,2.80
2023-05-14T20:48:09.846Z,2.67
2023-05-14T20:50:37.707Z,2.83
2023-05-14T20:53:05.490Z,3.05
2023-05-14T20:55:33.182Z,3.28
2023-05-14T20:58:02.512Z,3.08
2023-05-14T21:00:30.371Z,3.17
2023-05-14T21:02:59.547Z,2.83
2023-05-14T21:05:27.737Z,3.37
2023-05-14T21:07:55.690Z,3.30
2023-05-14T21:10:23.891Z,3.00
2023-05-14T21:12:52.365Z,3.50
2023-05-14T21:15:21.643Z,3.65
2023-05-14T21:17:49.452Z,3.92
2023-05-14T21:20:17.186Z,4.28
2023-05-14T21:22:45.214Z,4.45
2023-05-14T21:25:13.179Z,3.90
2023-05-14T21:27:40.867Z,4.30
2023-05-14T21:30:09.715Z,4.30
2023-05-14T21:32:38.925Z,3.47
2023-05-14T21:35:07.535Z,3.50
2023-05-14T21:37:35.219Z,3.38
2023-05-14T21:40:02.961Z,4.00
2023-05-14T21:42:30.885Z,3.88
2023-05-14T21:44:58.585Z,4.10
2023-05-14T21:47:26.379Z,3.97
2023-05-14T21:49:55.667Z,4.18
2023-05-14T21:52:23.359Z,3.60
2023-05-14T21:54:51.019Z,4.45
2023-05-14T21:57:18.764Z,3.85
2023-05-14T21:59:46.589Z,4.35
2023-05-14T22:02:14.348Z,4.75
2023-05-14T22:04:42.141Z,4.20
2023-05-14T22:07:11.345Z,4.28
2023-05-14T22:09:39.190Z,4.57
2023-05-14T22:12:08.616Z,4.18
2023-05-14T22:14:36.455Z,3.30
2023-05-14T22:17:04.725Z,3.72
2023-05-14T22:19:33.040Z,3.47
2023-05-14T22:22:00.838Z,3.90
2023-05-14T22:24:30.009Z,3.25
2023-05-14T22:26:57.729Z,3.95
2023-05-14T22:29:25.432Z,3.80
2023-05-14T22:31:53.393Z,3.60
2023-05-14T22:34:21.139Z,4.00
2023-05-14T22:36:48.907Z,3.95
2023-05-14T22:39:16.584Z,5.17
2023-05-14T22:41:45.896Z,4.88
2023-05-14T22:44:13.587Z,5.25
2023-05-14T22:46:41.370Z,5.97
2023-05-14T22:49:09.133Z,5.45
2023-05-14T22:51:36.792Z,5.13
2023-05-14T22:54:04.931Z,5.03
2023-05-14T22:56:32.768Z,4.88
2023-05-14T22:59:02.029Z,4.60
2023-05-14T23:01:30.446Z,4.83
2023-05-14T23:03:58.545Z,4.03
2023-05-14T23:06:26.286Z,4.17
2023-05-14T23:08:54.041Z,5.57
2023-05-14T23:11:22.748Z,5.90
2023-05-14T23:13:50.574Z,5.78
2023-05-14T23:16:20.648Z,5.07
2023-05-14T23:18:48.721Z,5.70
2023-05-14T23:21:16.486Z,4.97
2023-05-14T23:23:45.376Z,4.75
2023-05-14T23:26:13.146Z,4.60
2023-05-14T23:28:41.142Z,4.65
2023-05-14T23:31:08.846Z,4.15
2023-05-14T23:33:39.838Z,4.28
2023-05-14T23:36:08.651Z,4.78
2023-05-14T23:38:59.489Z,4.60
2023-05-14T23:41:27.392Z,4.95
2023-05-14T23:43:55.368Z,5.85
2023-05-14T23:46:23.261Z,7.65
2023-05-14T23:48:52.420Z,6.82
2023-05-14T23:51:20.130Z,5.25
2023-05-14T23:53:48.206Z,5.82
2023-05-14T23:56:15.872Z,6.65
2023-05-14T23:58:43.984Z,5.05
